Time;durP1;ratioP1;P1;durP2;ratioP2;P2;SDS_P1;SDS_P2;PMS_P1;PMS_P2;Temp;Humidity;BMP_temperature;BMP_pressure;BME280_temperature;BME280_humidity;BME280_pressure;Samples;Min_cycle;Max_cycle;Signal;HPM_P1;HPM_P2
2023/02/05 00:00:20;;;;;;;0.20;0.00;;;12.10;99.90;;;;;;21221220;27;20830;-69
2023/02/05 00:10:24;;;;;;;0.20;0.00;;;11.50;99.90;;;;;;21228821;27;20389;-69
2023/02/05 00:20:29;;;;;;;0.20;0.10;;;11.30;99.90;;;;;;21237084;27;20395;-67
2023/02/05 00:30:33;;;;;;;0.20;0.03;;;11.30;99.90;;;;;;21149646;27;20745;-68
2023/02/05 00:40:38;;;;;;;0.20;0.10;;;11.20;99.90;;;;;;21233757;27;20405;-68
2023/02/05 00:50:42;;;;;;;0.20;0.00;;;11.30;99.90;;;;;;21235098;27;20503;-69
2023/02/05 01:00:47;;;;;;;0.20;0.00;;;11.40;99.90;;;;;;21234351;27;20438;-68
2023/02/05 01:10:51;;;;;;;0.20;0.10;;;11.40;99.90;;;;;;21233729;27;20445;-68
2023/02/05 01:20:58;;;;;;;0.20;0.00;;;11.20;99.90;;;;;;21186565;27;20398;-68
2023/02/05 01:31:01;;;;;;;0.20;0.10;;;10.90;99.90;;;;;;21163808;27;20782;-68
2023/02/05 01:41:08;;;;;;;0.20;0.10;;;10.50;99.90;;;;;;21147327;28;20441;-67
2023/02/05 01:51:15;;;;;;;0.20;0.00;;;10.60;99.90;;;;;;21185835;27;20426;-68
2023/02/05 02:01:20;;;;;;;0.20;0.00;;;10.50;99.90;;;;;;21235086;27;20419;-69
2023/02/05 02:11:28;;;;;;;0.20;0.10;;;10.70;99.90;;;;;;21215046;27;20400;-69
2023/02/05 02:22:19;;;;;;;0.20;0.10;;;11.10;99.90;;;;;;21215110;27;20842;-67
2023/02/05 02:32:34;;;;;;;0.20;0.10;;;11.20;99.90;;;;;;21169527;27;20478;-68
2023/02/05 02:42:46;;;;;;;0.20;0.10;;;10.90;99.90;;;;;;21178938;27;20446;-69
2023/02/05 02:52:54;;;;;;;0.20;0.10;;;10.80;99.90;;;;;;21129036;28;20409;-69
2023/02/05 03:03:05;;;;;;;0.20;0.10;;;10.80;99.90;;;;;;21128188;28;20410;-68
2023/02/05 03:13:11;;;;;;;0.20;0.10;;;10.70;99.90;;;;;;21127503;28;20394;-68
2023/02/05 03:23:15;;;;;;;0.20;0.10;;;10.80;99.90;;;;;;21201356;27;20420;-68
2023/02/05 03:33:37;;;;;;;0.20;0.10;;;11.00;99.90;;;;;;21214513;27;20396;-68
2023/02/05 03:43:50;;;;;;;0.20;0.10;;;11.10;99.90;;;;;;21227169;27;20821;-69
2023/02/05 03:54:05;;;;;;;0.20;0.10;;;10.90;99.90;;;;;;21226388;27;20393;-68
2023/02/05 04:04:09;;;;;;;0.20;0.10;;;10.80;99.90;;;;;;21244218;27;20408;-68
2023/02/05 04:14:14;;;;;;;0.20;0.08;;;10.70;99.90;;;;;;21224639;27;20739;-69
2023/02/05 04:24:18;;;;;;;0.20;0.10;;;10.30;99.90;;;;;;21224335;27;20798;-68
2023/02/05 04:34:23;;;;;;;0.20;0.00;;;10.20;99.90;;;;;;21222847;27;20400;-68
2023/02/05 04:44:27;;;;;;;0.20;0.10;;;10.10;99.90;;;;;;21239827;27;20415;-69
2023/02/05 04:54:32;;;;;;;0.20;0.10;;;10.00;99.90;;;;;;21240504;27;20400;-69
2023/02/05 05:04:37;;;;;;;0.20;0.00;;;9.90;99.90;;;;;;21239998;27;20911;-70
2023/02/05 05:14:42;;;;;;;0.20;0.10;;;9.80;99.90;;;;;;21219208;27;20955;-69
2023/02/05 05:24:46;;;;;;;0.20;0.08;;;9.90;99.90;;;;;;21238537;27;20451;-69
2023/02/05 05:34:51;;;;;;;0.20;0.10;;;10.00;99.90;;;;;;21236363;27;20409;-69
2023/02/05 05:44:55;;;;;;;0.20;0.00;;;9.80;99.90;;;;;;21236291;27;20724;-69
2023/02/05 05:55:01;;;;;;;0.20;0.10;;;10.00;99.90;;;;;;21216149;27;20404;-69
2023/02/05 06:05:04;;;;;;;0.20;0.10;;;9.90;99.90;;;;;;21234670;27;20393;-69
2023/02/05 06:15:10;;;;;;;0.20;0.10;;;10.00;99.90;;;;;;21198217;27;20405;-68
2023/02/05 06:25:14;;;;;;;0.20;0.10;;;9.70;99.90;;;;;;21213364;27;20397;-69
2023/02/05 06:35:20;;;;;;;0.20;0.10;;;9.30;99.90;;;;;;21231647;27;20409;-68
2023/02/05 06:45:24;;;;;;;0.20;0.00;;;9.30;99.90;;;;;;21195975;27;20436;-70
2023/02/05 06:55:29;;;;;;;0.20;0.08;;;9.50;99.90;;;;;;21212231;27;20869;-69
2023/02/05 07:05:33;;;;;;;0.20;0.10;;;9.30;99.90;;;;;;21211722;28;20453;-69
2023/02/05 07:15:39;;;;;;;0.20;0.10;;;8.90;99.90;;;;;;21226930;27;20903;-68
2023/02/05 07:25:42;;;;;;;0.20;0.00;;;8.80;99.90;;;;;;21211424;27;20482;-69
2023/02/05 07:35:48;;;;;;;0.20;0.10;;;8.60;99.90;;;;;;21210777;27;20422;-69
2023/02/05 07:45:56;;;;;;;0.20;0.10;;;9.10;99.90;;;;;;21245673;27;20407;-69
2023/02/05 07:56:04;;;;;;;0.20;0.10;;;9.20;99.90;;;;;;21182586;27;20406;-70
2023/02/05 08:06:09;;;;;;;0.20;0.10;;;9.60;99.90;;;;;;21158108;28;20464;-69
2023/02/05 08:16:15;;;;;;;0.20;0.00;;;10.00;99.90;;;;;;21139328;28;20836;-69
2023/02/05 08:26:19;;;;;;;0.20;0.10;;;10.30;99.90;;;;;;21157250;28;20916;-69
2023/02/05 08:36:25;;;;;;;0.20;0.00;;;10.70;99.90;;;;;;21138805;28;20478;-70
2023/02/05 08:46:28;;;;;;;0.20;0.10;;;11.10;99.90;;;;;;21154054;28;20402;-69
2023/02/05 08:56:52;;;;;;;0.20;0.03;;;11.60;99.90;;;;;;21136074;28;20899;-68
2023/02/05 09:06:56;;;;;;;0.20;0.00;;;11.80;99.90;;;;;;21135475;28;20791;-68
2023/02/05 09:17:02;;;;;;;0.20;0.00;;;12.10;99.90;;;;;;21152429;28;20414;-69
2023/02/05 09:27:06;;;;;;;0.20;0.05;;;12.40;99.90;;;;;;21151903;28;20881;-70
2023/02/05 09:37:11;;;;;;;0.20;0.10;;;12.60;99.90;;;;;;21132314;28;20417;-69
2023/02/05 09:47:22;;;;;;;0.20;0.00;;;13.20;99.90;;;;;;21130970;28;20403;-68
2023/02/05 09:57:34;;;;;;;0.20;0.10;;;13.90;99.90;;;;;;21200631;27;20911;-70
2023/02/05 10:07:47;;;;;;;0.20;0.10;;;14.40;99.90;;;;;;21231515;27;20404;-68
2023/02/05 10:18:03;;;;;;;0.20;0.00;;;15.10;99.90;;;;;;21190454;27;20485;-69
2023/02/05 10:28:21;;;;;;;0.20;0.10;;;15.50;99.90;;;;;;21198100;27;20406;-69
2023/02/05 10:38:28;;;;;;;0.20;0.10;;;15.60;99.90;;;;;;21162777;27;20789;-70
2023/02/05 10:48:40;;;;;;;0.20;0.10;;;15.70;99.90;;;;;;21179361;27;20398;-70
2023/02/05 10:58:51;;;;;;;0.20;0.00;;;16.30;99.90;;;;;;21197019;27;20997;-70
2023/02/05 11:08:56;;;;;;;0.20;0.10;;;17.90;99.90;;;;;;21222506;28;20385;-69
2023/02/05 11:19:01;;;;;;;0.20;0.10;;;18.10;99.90;;;;;;21223006;28;20987;-67
2023/02/05 11:29:19;;;;;;;0.20;0.10;;;18.20;99.90;;;;;;21225739;28;20405;-67
2023/02/05 11:39:32;;;;;;;0.20;0.10;;;19.30;99.90;;;;;;21224446;28;20826;-66
2023/02/05 11:49:39;;;;;;;0.20;0.10;;;19.10;99.90;;;;;;21221913;28;20393;-68
2023/02/05 11:59:55;;;;;;;0.20;0.20;;;18.90;99.90;;;;;;21231282;27;20409;-69
2023/02/05 12:09:59;;;;;;;0.20;0.10;;;19.60;99.90;;;;;;21249534;27;20471;-68
2023/02/05 12:20:16;;;;;;;0.20;0.00;;;19.50;99.90;;;;;;21236834;27;20453;-68
2023/02/05 12:30:42;;;;;;;0.20;0.10;;;19.50;99.90;;;;;;21219574;27;20409;-66
2023/02/05 12:40:58;;;;;;;0.20;0.10;;;20.40;99.90;;;;;;21237630;27;20972;-68
2023/02/05 12:51:18;;;;;;;0.20;0.10;;;20.10;99.90;;;;;;21218064;27;20406;-68
2023/02/05 13:01:32;;;;;;;1.40;1.40;;;20.30;99.90;;;;;;21231887;27;20393;-69
2023/02/05 13:11:40;;;;;;;0.20;0.10;;;20.90;99.90;;;;;;21229887;27;20396;-69
2023/02/05 13:32:14;;;;;;;0.20;0.10;;;20.00;99.90;;;;;;21214951;27;20393;-67
2023/02/05 13:42:58;;;;;;;0.20;0.10;;;19.70;99.90;;;;;;21233272;27;20404;-66
2023/02/05 13:53:27;;;;;;;0.20;0.10;;;20.00;99.90;;;;;;21218090;27;20421;-67
2023/02/05 14:03:37;;;;;;;0.20;0.10;;;20.90;99.90;;;;;;21144989;28;20765;-67
2023/02/05 14:13:42;;;;;;;0.20;0.10;;;20.90;99.90;;;;;;21145960;28;20411;-69
2023/02/05 14:23:58;;;;;;;0.20;0.10;;;20.80;99.90;;;;;;21145852;28;20761;-68
2023/02/05 14:34:49;;;;;;;0.20;0.10;;;21.40;99.90;;;;;;21144573;28;20406;-69
2023/02/05 14:44:56;;;;;;;0.20;0.10;;;21.30;99.90;;;;;;21142856;28;20407;-69
2023/02/05 14:55:06;;;;;;;0.20;0.10;;;21.30;99.90;;;;;;21144306;28;20409;-69
2023/02/05 15:05:16;;;;;;;0.20;0.10;;;21.50;99.90;;;;;;21144028;28;20415;-75
2023/02/05 15:15:27;;;;;;;0.20;0.10;;;21.10;99.90;;;;;;21143273;28;20526;-69
2023/02/05 15:25:38;;;;;;;0.20;0.10;;;21.70;99.90;;;;;;21142768;28;20406;-68
2023/02/05 15:35:44;;;;;;;0.20;0.00;;;21.70;99.90;;;;;;21156833;28;20398;-69
2023/02/05 15:45:50;;;;;;;0.20;0.10;;;20.20;99.90;;;;;;21159769;28;21152;-68
2023/02/05 15:55:56;;;;;;;0.20;0.10;;;18.00;99.90;;;;;;21140250;28;20494;-69
2023/02/05 16:06:02;;;;;;;0.20;0.10;;;17.70;99.90;;;;;;21157581;28;20451;-69
2023/02/05 16:16:08;;;;;;;0.20;0.10;;;17.80;99.90;;;;;;21157587;28;20452;-69
2023/02/05 16:26:19;;;;;;;0.20;0.10;;;18.00;99.90;;;;;;21154856;28;20766;-70
2023/02/05 16:36:24;;;;;;;0.20;0.10;;;16.60;99.90;;;;;;21152890;28;20897;-70
2023/02/05 16:46:31;;;;;;;0.20;0.10;;;15.70;99.90;;;;;;21153939;27;20406;-67
2023/02/05 16:56:38;;;;;;;0.20;0.00;;;15.00;99.90;;;;;;21171718;27;20400;-68
2023/02/05 17:06:43;;;;;;;0.30;0.30;;;14.30;99.90;;;;;;21233265;27;20389;-69
2023/02/05 17:16:54;;;;;;;0.20;0.00;;;13.90;99.90;;;;;;21233733;27;20519;-67
2023/02/05 17:26:59;;;;;;;0.20;0.08;;;13.70;99.90;;;;;;21230676;27;20405;-66
2023/02/05 17:37:03;;;;;;;0.20;0.10;;;13.30;99.90;;;;;;21230113;27;20412;-68
2023/02/05 17:47:10;;;;;;;0.20;0.10;;;12.70;99.90;;;;;;21211067;27;20389;-68
2023/02/05 17:57:16;;;;;;;0.20;0.10;;;11.90;99.90;;;;;;21228323;27;20401;-66
2023/02/05 18:07:28;;;;;;;0.20;0.00;;;11.30;99.90;;;;;;21228247;27;20385;-70
2023/02/05 18:17:32;;;;;;;0.20;0.10;;;10.90;99.90;;;;;;21225207;27;20726;-67
2023/02/05 18:27:37;;;;;;;0.20;0.03;;;10.50;99.90;;;;;;21224930;27;20457;-67
2023/02/05 18:37:42;;;;;;;0.20;0.10;;;10.30;99.90;;;;;;21224553;27;21013;-68
2023/02/05 18:47:47;;;;;;;0.20;0.00;;;10.00;99.90;;;;;;21224545;27;20433;-67
2023/02/05 18:57:52;;;;;;;0.20;0.10;;;10.10;99.90;;;;;;21226638;27;20413;-68
2023/02/05 19:07:57;;;;;;;0.20;0.10;;;10.00;99.90;;;;;;21209702;27;20421;-68
2023/02/05 19:18:01;;;;;;;0.20;0.10;;;9.70;99.90;;;;;;21227565;27;20404;-67
2023/02/05 19:28:06;;;;;;;0.20;0.00;;;9.90;99.90;;;;;;21227471;28;20385;-67
2023/02/05 19:38:10;;;;;;;0.20;0.10;;;9.40;99.90;;;;;;21226848;28;20485;-69
2023/02/05 19:48:16;;;;;;;0.20;0.03;;;9.40;99.90;;;;;;21216188;28;20956;-67
2023/02/05 19:58:19;;;;;;;0.20;0.10;;;9.30;99.90;;;;;;21221984;28;20958;-67
2023/02/05 20:08:25;;;;;;;0.20;0.10;;;9.20;99.90;;;;;;21222354;27;20393;-69
2023/02/05 20:18:30;;;;;;;0.20;0.10;;;9.20;99.90;;;;;;21228028;27;20526;-68
2023/02/05 20:31:31;;;;;;;0.20;0.10;;;8.90;99.90;;;;;;21234707;27;21011;-67
2023/02/05 20:39:05;;;;;;;0.20;0.10;;;9.10;99.90;;;;;;21233760;27;20416;-68
2023/02/05 20:49:11;;;;;;;0.20;0.10;;;9.00;99.90;;;;;;21228027;27;20450;-67
2023/02/05 20:59:15;;;;;;;0.20;0.00;;;8.60;99.90;;;;;;21233277;27;20480;-67
2023/02/05 21:09:23;;;;;;;0.20;0.10;;;8.60;99.90;;;;;;21231780;27;20441;-67
2023/02/05 21:19:26;;;;;;;0.20;0.10;;;8.50;99.90;;;;;;21230145;27;20466;-67
2023/02/05 21:29:32;;;;;;;0.20;0.03;;;8.80;99.90;;;;;;21229856;27;20933;-68
2023/02/05 21:39:36;;;;;;;0.20;0.10;;;9.30;99.90;;;;;;21230885;27;20470;-68
2023/02/05 21:49:41;;;;;;;0.20;0.00;;;9.90;99.90;;;;;;21232482;27;20415;-68
2023/02/05 21:59:45;;;;;;;0.20;0.10;;;9.90;99.90;;;;;;21232426;27;20892;-69
2023/02/05 22:09:50;;;;;;;0.20;0.10;;;9.90;99.90;;;;;;21231129;27;20793;-70
2023/02/05 22:19:54;;;;;;;0.20;0.00;;;9.50;99.90;;;;;;21224622;27;20408;-69
2023/02/05 22:30:00;;;;;;;0.20;0.10;;;9.30;99.90;;;;;;21215332;27;20419;-68
2023/02/05 22:40:04;;;;;;;0.20;0.10;;;9.20;99.90;;;;;;21180956;27;20422;-67
2023/02/05 22:50:11;;;;;;;0.20;0.10;;;9.10;99.90;;;;;;21144862;28;20383;-68
2023/02/05 23:00:16;;;;;;;0.20;0.10;;;9.00;99.90;;;;;;21143701;28;20403;-69
2023/02/05 23:10:22;;;;;;;0.20;0.00;;;9.10;99.90;;;;;;21201017;28;20437;-69
2023/02/05 23:20:26;;;;;;;0.20;0.10;;;9.00;99.90;;;;;;21227972;28;20397;-69
2023/02/05 23:30:31;;;;;;;0.20;0.10;;;9.10;99.90;;;;;;21229467;28;20412;-69
2023/02/05 23:40:35;;;;;;;0.20;0.00;;;9.50;99.90;;;;;;21227378;28;20462;-69
2023/02/05 23:50:42;;;;;;;0.20;0.03;;;10.60;99.90;;;;;;21221883;27;20500;-69
